sensor_id;sensor_type;location;lat;lon;timestamp;P1;durP1;ratioP1;P2;durP2;ratioP2
7545;SDS011;3814;51.454;12.616;2023-01-01T00:01:07;15.63;;;7.80;;
7545;SDS011;3814;51.454;12.616;2023-01-01T00:03:36;13.32;;;6.63;;
7545;SDS011;3814;51.454;12.616;2023-01-01T00:06:06;12.95;;;6.30;;
7545;SDS011;3814;51.454;12.616;2023-01-01T00:08:31;13.00;;;5.78;;
7545;SDS011;3814;51.454;12.616;2023-01-01T00:10:59;11.50;;;6.22;;
7545;SDS011;3814;51.454;12.616;2023-01-01T00:13:28;11.63;;;5.75;;
7545;SDS011;3814;51.454;12.616;2023-01-01T00:15:53;12.32;;;6.25;;
7545;SDS011;3814;51.454;12.616;2023-01-01T00:18:19;10.40;;;5.35;;
7545;SDS011;3814;51.454;12.616;2023-01-01T00:20:44;11.60;;;5.75;;
7545;SDS011;3814;51.454;12.616;2023-01-01T00:23:09;10.32;;;5.65;;
7545;SDS011;3814;51.454;12.616;2023-01-01T00:25:35;11.02;;;5.63;;
7545;SDS011;3814;51.454;12.616;2023-01-01T00:28:00;10.50;;;5.40;;
7545;SDS011;3814;51.454;12.616;2023-01-01T00:30:26;9.05;;;5.00;;
7545;SDS011;3814;51.454;12.616;2023-01-01T00:32:51;10.43;;;4.40;;
7545;SDS011;3814;51.454;12.616;2023-01-01T00:35:16;10.00;;;4.43;;
7545;SDS011;3814;51.454;12.616;2023-01-01T00:37:42;7.25;;;4.07;;
7545;SDS011;3814;51.454;12.616;2023-01-01T00:40:07;6.53;;;3.40;;
7545;SDS011;3814;51.454;12.616;2023-01-01T00:42:33;6.72;;;3.45;;
7545;SDS011;3814;51.454;12.616;2023-01-01T00:44:58;8.45;;;3.20;;
7545;SDS011;3814;51.454;12.616;2023-01-01T00:47:24;6.75;;;3.05;;
7545;SDS011;3814;51.454;12.616;2023-01-01T00:49:49;7.18;;;3.42;;
7545;SDS011;3814;51.454;12.616;2023-01-01T00:52:14;10.23;;;5.53;;
7545;SDS011;3814;51.454;12.616;2023-01-01T00:54:40;7.60;;;3.60;;
7545;SDS011;3814;51.454;12.616;2023-01-01T00:57:05;6.03;;;3.50;;
7545;SDS011;3814;51.454;12.616;2023-01-01T00:59:30;7.70;;;3.92;;
7545;SDS011;3814;51.454;12.616;2023-01-01T01:01:56;7.25;;;3.95;;
7545;SDS011;3814;51.454;12.616;2023-01-01T01:04:21;6.88;;;3.88;;
7545;SDS011;3814;51.454;12.616;2023-01-01T01:06:46;8.68;;;4.35;;
7545;SDS011;3814;51.454;12.616;2023-01-01T01:09:12;10.85;;;4.75;;
7545;SDS011;3814;51.454;12.616;2023-01-01T01:11:37;9.15;;;4.68;;
7545;SDS011;3814;51.454;12.616;2023-01-01T01:14:03;9.32;;;4.63;;
7545;SDS011;3814;51.454;12.616;2023-01-01T01:16:29;9.50;;;4.70;;
7545;SDS011;3814;51.454;12.616;2023-01-01T01:18:57;14.18;;;5.60;;
7545;SDS011;3814;51.454;12.616;2023-01-01T01:21:24;9.13;;;5.00;;
7545;SDS011;3814;51.454;12.616;2023-01-01T01:23:50;11.82;;;5.18;;
7545;SDS011;3814;51.454;12.616;2023-01-01T01:26:20;10.82;;;5.10;;
7545;SDS011;3814;51.454;12.616;2023-01-01T01:28:47;11.35;;;5.32;;
7545;SDS011;3814;51.454;12.616;2023-01-01T01:31:12;11.65;;;6.00;;
7545;SDS011;3814;51.454;12.616;2023-01-01T01:33:38;11.52;;;5.75;;
7545;SDS011;3814;51.454;12.616;2023-01-01T01:36:04;10.30;;;5.28;;
7545;SDS011;3814;51.454;12.616;2023-01-01T01:38:30;13.45;;;6.28;;
7545;SDS011;3814;51.454;12.616;2023-01-01T01:40:55;13.80;;;6.05;;
7545;SDS011;3814;51.454;12.616;2023-01-01T01:43:22;11.13;;;5.43;;
7545;SDS011;3814;51.454;12.616;2023-01-01T01:48:17;10.63;;;5.15;;
7545;SDS011;3814;51.454;12.616;2023-01-01T01:50:43;11.13;;;5.30;;
7545;SDS011;3814;51.454;12.616;2023-01-01T01:53:20;10.05;;;5.20;;
7545;SDS011;3814;51.454;12.616;2023-01-01T01:56:05;12.02;;;5.35;;
7545;SDS011;3814;51.454;12.616;2023-01-01T01:58:35;10.13;;;4.68;;
7545;SDS011;3814;51.454;12.616;2023-01-01T02:01:03;10.05;;;5.13;;
7545;SDS011;3814;51.454;12.616;2023-01-01T02:05:59;9.63;;;4.50;;
7545;SDS011;3814;51.454;12.616;2023-01-01T02:08:25;10.13;;;4.50;;
7545;SDS011;3814;51.454;12.616;2023-01-01T02:10:50;10.25;;;4.35;;
7545;SDS011;3814;51.454;12.616;2023-01-01T02:13:16;9.90;;;3.95;;
7545;SDS011;3814;51.454;12.616;2023-01-01T02:15:51;7.35;;;3.40;;
7545;SDS011;3814;51.454;12.616;2023-01-01T02:18:20;7.20;;;3.63;;
7545;SDS011;3814;51.454;12.616;2023-01-01T02:20:53;6.32;;;3.30;;
7545;SDS011;3814;51.454;12.616;2023-01-01T02:23:30;7.70;;;2.88;;
7545;SDS011;3814;51.454;12.616;2023-01-01T02:26:49;7.97;;;3.15;;
7545;SDS011;3814;51.454;12.616;2023-01-01T02:31:36;5.97;;;2.53;;
7545;SDS011;3814;51.454;12.616;2023-01-01T02:34:07;6.07;;;2.65;;
7545;SDS011;3814;51.454;12.616;2023-01-01T02:36:37;5.10;;;2.50;;
7545;SDS011;3814;51.454;12.616;2023-01-01T02:39:14;6.53;;;2.30;;
7545;SDS011;3814;51.454;12.616;2023-01-01T02:41:42;6.75;;;2.60;;
7545;SDS011;3814;51.454;12.616;2023-01-01T02:44:10;4.88;;;2.58;;
7545;SDS011;3814;51.454;12.616;2023-01-01T02:46:35;5.40;;;2.53;;
7545;SDS011;3814;51.454;12.616;2023-01-01T02:49:01;6.10;;;2.42;;
7545;SDS011;3814;51.454;12.616;2023-01-01T02:51:34;4.47;;;2.28;;
7545;SDS011;3814;51.454;12.616;2023-01-01T02:59:32;4.88;;;2.42;;
7545;SDS011;3814;51.454;12.616;2023-01-01T03:05:25;6.40;;;2.40;;
7545;SDS011;3814;51.454;12.616;2023-01-01T03:08:29;5.78;;;2.45;;
7545;SDS011;3814;51.454;12.616;2023-01-01T03:11:07;6.70;;;2.45;;
7545;SDS011;3814;51.454;12.616;2023-01-01T03:13:37;6.28;;;2.60;;
7545;SDS011;3814;51.454;12.616;2023-01-01T03:16:06;6.75;;;2.90;;
7545;SDS011;3814;51.454;12.616;2023-01-01T03:24:16;5.10;;;2.50;;
7545;SDS011;3814;51.454;12.616;2023-01-01T03:26:44;6.78;;;3.17;;
7545;SDS011;3814;51.454;12.616;2023-01-01T03:29:12;6.68;;;3.13;;
7545;SDS011;3814;51.454;12.616;2023-01-01T03:31:39;5.75;;;2.85;;
7545;SDS011;3814;51.454;12.616;2023-01-01T03:34:06;8.18;;;2.80;;
7545;SDS011;3814;51.454;12.616;2023-01-01T03:36:37;7.40;;;2.92;;
7545;SDS011;3814;51.454;12.616;2023-01-01T03:39:16;9.15;;;3.00;;
7545;SDS011;3814;51.454;12.616;2023-01-01T03:44:26;7.40;;;3.15;;
7545;SDS011;3814;51.454;12.616;2023-01-01T03:46:52;7.47;;;2.97;;
7545;SDS011;3814;51.454;12.616;2023-01-01T03:49:18;6.63;;;3.50;;
7545;SDS011;3814;51.454;12.616;2023-01-01T03:54:43;9.70;;;3.30;;
7545;SDS011;3814;51.454;12.616;2023-01-01T04:00:09;8.35;;;3.20;;
7545;SDS011;3814;51.454;12.616;2023-01-01T04:02:51;9.15;;;3.45;;
7545;SDS011;3814;51.454;12.616;2023-01-01T04:05:20;9.32;;;3.55;;
7545;SDS011;3814;51.454;12.616;2023-01-01T04:07:46;7.40;;;3.50;;
7545;SDS011;3814;51.454;12.616;2023-01-01T04:10:11;6.97;;;3.22;;
7545;SDS011;3814;51.454;12.616;2023-01-01T04:15:09;7.00;;;3.80;;
7545;SDS011;3814;51.454;12.616;2023-01-01T04:17:34;8.65;;;3.40;;
7545;SDS011;3814;51.454;12.616;2023-01-01T04:20:00;8.60;;;3.60;;
7545;SDS011;3814;51.454;12.616;2023-01-01T04:22:25;7.97;;;3.40;;
7545;SDS011;3814;51.454;12.616;2023-01-01T04:24:50;7.13;;;3.30;;
7545;SDS011;3814;51.454;12.616;2023-01-01T04:27:16;6.95;;;3.20;;
7545;SDS011;3814;51.454;12.616;2023-01-01T04:29:41;7.65;;;3.42;;
7545;SDS011;3814;51.454;12.616;2023-01-01T04:32:07;7.55;;;3.03;;
7545;SDS011;3814;51.454;12.616;2023-01-01T04:34:32;8.27;;;3.30;;
7545;SDS011;3814;51.454;12.616;2023-01-01T04:36:57;7.85;;;3.53;;
7545;SDS011;3814;51.454;12.616;2023-01-01T04:39:22;7.55;;;3.35;;
7545;SDS011;3814;51.454;12.616;2023-01-01T04:41:48;9.85;;;3.50;;
7545;SDS011;3814;51.454;12.616;2023-01-01T04:44:13;9.35;;;3.25;;
7545;SDS011;3814;51.454;12.616;2023-01-01T04:46:39;8.65;;;3.47;;
7545;SDS011;3814;51.454;12.616;2023-01-01T04:49:06;8.13;;;3.30;;
7545;SDS011;3814;51.454;12.616;2023-01-01T04:51:31;7.50;;;3.38;;
7545;SDS011;3814;51.454;12.616;2023-01-01T04:53:57;7.53;;;3.00;;
7545;SDS011;3814;51.454;12.616;2023-01-01T04:56:23;7.22;;;2.97;;
7545;SDS011;3814;51.454;12.616;2023-01-01T04:58:48;7.25;;;3.25;;
7545;SDS011;3814;51.454;12.616;2023-01-01T05:01:24;12.15;;;3.42;;
7545;SDS011;3814;51.454;12.616;2023-01-01T05:03:51;8.18;;;3.25;;
7545;SDS011;3814;51.454;12.616;2023-01-01T05:06:17;7.20;;;3.20;;
7545;SDS011;3814;51.454;12.616;2023-01-01T05:08:43;8.27;;;3.00;;
7545;SDS011;3814;51.454;12.616;2023-01-01T05:11:11;7.13;;;2.92;;
7545;SDS011;3814;51.454;12.616;2023-01-01T05:13:39;8.15;;;3.20;;
7545;SDS011;3814;51.454;12.616;2023-01-01T05:16:07;6.28;;;3.05;;
7545;SDS011;3814;51.454;12.616;2023-01-01T05:18:35;7.20;;;3.00;;
7545;SDS011;3814;51.454;12.616;2023-01-01T05:21:01;6.80;;;2.97;;
7545;SDS011;3814;51.454;12.616;2023-01-01T05:23:28;7.55;;;3.33;;
7545;SDS011;3814;51.454;12.616;2023-01-01T05:25:54;6.32;;;3.13;;
7545;SDS011;3814;51.454;12.616;2023-01-01T05:28:20;7.18;;;3.05;;
7545;SDS011;3814;51.454;12.616;2023-01-01T05:30:45;6.55;;;2.83;;
7545;SDS011;3814;51.454;12.616;2023-01-01T05:33:11;9.15;;;3.30;;
7545;SDS011;3814;51.454;12.616;2023-01-01T05:35:37;7.82;;;2.95;;
7545;SDS011;3814;51.454;12.616;2023-01-01T05:38:02;6.25;;;2.97;;
7545;SDS011;3814;51.454;12.616;2023-01-01T05:40:28;9.57;;;3.38;;
7545;SDS011;3814;51.454;12.616;2023-01-01T05:42:54;6.43;;;3.10;;
7545;SDS011;3814;51.454;12.616;2023-01-01T05:45:20;7.13;;;3.10;;
7545;SDS011;3814;51.454;12.616;2023-01-01T05:47:45;7.05;;;3.38;;
7545;SDS011;3814;51.454;12.616;2023-01-01T05:50:10;8.45;;;3.58;;
7545;SDS011;3814;51.454;12.616;2023-01-01T05:52:36;8.40;;;3.13;;
7545;SDS011;3814;51.454;12.616;2023-01-01T05:55:01;6.90;;;3.20;;
7545;SDS011;3814;51.454;12.616;2023-01-01T05:57:27;7.57;;;3.25;;
7545;SDS011;3814;51.454;12.616;2023-01-01T05:59:52;6.00;;;3.22;;
7545;SDS011;3814;51.454;12.616;2023-01-01T06:02:18;6.85;;;3.03;;
7545;SDS011;3814;51.454;12.616;2023-01-01T06:04:43;6.68;;;2.97;;
7545;SDS011;3814;51.454;12.616;2023-01-01T06:07:08;10.48;;;3.20;;
7545;SDS011;3814;51.454;12.616;2023-01-01T06:09:34;6.95;;;2.85;;
7545;SDS011;3814;51.454;12.616;2023-01-01T06:11:59;6.05;;;3.00;;
7545;SDS011;3814;51.454;12.616;2023-01-01T06:14:24;8.98;;;3.60;;
7545;SDS011;3814;51.454;12.616;2023-01-01T06:16:50;8.00;;;3.20;;
7545;SDS011;3814;51.454;12.616;2023-01-01T06:19:15;8.35;;;3.05;;
7545;SDS011;3814;51.454;12.616;2023-01-01T06:21:40;6.95;;;3.40;;
7545;SDS011;3814;51.454;12.616;2023-01-01T06:24:06;6.80;;;2.80;;
7545;SDS011;3814;51.454;12.616;2023-01-01T06:26:32;7.15;;;3.35;;
7545;SDS011;3814;51.454;12.616;2023-01-01T06:28:58;6.93;;;2.97;;
7545;SDS011;3814;51.454;12.616;2023-01-01T06:31:25;6.65;;;3.20;;
7545;SDS011;3814;51.454;12.616;2023-01-01T06:33:52;7.00;;;3.10;;
7545;SDS011;3814;51.454;12.616;2023-01-01T06:36:18;7.18;;;3.03;;
7545;SDS011;3814;51.454;12.616;2023-01-01T06:38:46;7.93;;;3.10;;
7545;SDS011;3814;51.454;12.616;2023-01-01T06:41:14;7.10;;;2.80;;
7545;SDS011;3814;51.454;12.616;2023-01-01T06:43:43;6.57;;;3.30;;
7545;SDS011;3814;51.454;12.616;2023-01-01T06:46:14;7.32;;;3.00;;
7545;SDS011;3814;51.454;12.616;2023-01-01T06:48:40;5.65;;;2.95;;
7545;SDS011;3814;51.454;12.616;2023-01-01T06:51:12;7.47;;;3.03;;
7545;SDS011;3814;51.454;12.616;2023-01-01T06:53:39;10.35;;;3.33;;
7545;SDS011;3814;51.454;12.616;2023-01-01T06:56:05;7.07;;;3.30;;
7545;SDS011;3814;51.454;12.616;2023-01-01T06:58:30;8.23;;;3.10;;
7545;SDS011;3814;51.454;12.616;2023-01-01T07:01:03;7.05;;;3.10;;
7545;SDS011;3814;51.454;12.616;2023-01-01T07:03:34;5.88;;;2.80;;
7545;SDS011;3814;51.454;12.616;2023-01-01T07:05:59;6.93;;;2.97;;
7545;SDS011;3814;51.454;12.616;2023-01-01T07:08:25;5.60;;;3.20;;
7545;SDS011;3814;51.454;12.616;2023-01-01T07:10:50;7.32;;;3.35;;
7545;SDS011;3814;51.454;12.616;2023-01-01T07:13:15;5.45;;;2.80;;
7545;SDS011;3814;51.454;12.616;2023-01-01T07:15:41;8.98;;;3.50;;
7545;SDS011;3814;51.454;12.616;2023-01-01T07:18:08;7.95;;;3.17;;
7545;SDS011;3814;51.454;12.616;2023-01-01T07:20:33;8.90;;;3.20;;
7545;SDS011;3814;51.454;12.616;2023-01-01T07:22:59;5.75;;;2.83;;
7545;SDS011;3814;51.454;12.616;2023-01-01T07:25:26;7.65;;;3.20;;
7545;SDS011;3814;51.454;12.616;2023-01-01T07:27:51;5.72;;;2.88;;
7545;SDS011;3814;51.454;12.616;2023-01-01T07:30:16;9.75;;;3.33;;
7545;SDS011;3814;51.454;12.616;2023-01-01T07:32:42;8.20;;;3.03;;
7545;SDS011;3814;51.454;12.616;2023-01-01T07:35:07;7.68;;;3.08;;
7545;SDS011;3814;51.454;12.616;2023-01-01T07:37:33;9.55;;;3.22;;
7545;SDS011;3814;51.454;12.616;2023-01-01T07:39:58;6.80;;;3.03;;
7545;SDS011;3814;51.454;12.616;2023-01-01T07:42:23;10.43;;;3.38;;
7545;SDS011;3814;51.454;12.616;2023-01-01T07:44:49;11.23;;;3.38;;
7545;SDS011;3814;51.454;12.616;2023-01-01T07:47:18;7.20;;;3.10;;
7545;SDS011;3814;51.454;12.616;2023-01-01T07:49:45;7.55;;;3.25;;
7545;SDS011;3814;51.454;12.616;2023-01-01T07:52:11;10.48;;;3.22;;
7545;SDS011;3814;51.454;12.616;2023-01-01T07:54:36;9.27;;;3.45;;
7545;SDS011;3814;51.454;12.616;2023-01-01T07:57:01;7.65;;;3.28;;
7545;SDS011;3814;51.454;12.616;2023-01-01T07:59:27;8.88;;;3.63;;
7545;SDS011;3814;51.454;12.616;2023-01-01T08:01:52;7.20;;;3.20;;
7545;SDS011;3814;51.454;12.616;2023-01-01T08:04:17;9.43;;;3.40;;
7545;SDS011;3814;51.454;12.616;2023-01-01T08:06:45;9.38;;;3.20;;
7545;SDS011;3814;51.454;12.616;2023-01-01T08:09:10;7.45;;;3.22;;
7545;SDS011;3814;51.454;12.616;2023-01-01T08:11:36;9.80;;;3.60;;
7545;SDS011;3814;51.454;12.616;2023-01-01T08:14:01;8.35;;;3.42;;
7545;SDS011;3814;51.454;12.616;2023-01-01T08:16:27;7.15;;;3.65;;
7545;SDS011;3814;51.454;12.616;2023-01-01T08:18:52;10.77;;;3.60;;
7545;SDS011;3814;51.454;12.616;2023-01-01T08:21:17;8.20;;;3.88;;
7545;SDS011;3814;51.454;12.616;2023-01-01T08:23:43;7.43;;;3.35;;
7545;SDS011;3814;51.454;12.616;2023-01-01T08:26:12;8.48;;;3.47;;
7545;SDS011;3814;51.454;12.616;2023-01-01T08:28:39;9.65;;;3.60;;
7545;SDS011;3814;51.454;12.616;2023-01-01T08:31:04;7.75;;;3.50;;
7545;SDS011;3814;51.454;12.616;2023-01-01T08:33:29;7.35;;;3.58;;
7545;SDS011;3814;51.454;12.616;2023-01-01T08:35:55;6.18;;;3.30;;
7545;SDS011;3814;51.454;12.616;2023-01-01T08:38:20;7.15;;;3.65;;
7545;SDS011;3814;51.454;12.616;2023-01-01T08:40:46;8.00;;;3.70;;
7545;SDS011;3814;51.454;12.616;2023-01-01T08:43:11;8.27;;;3.63;;
7545;SDS011;3814;51.454;12.616;2023-01-01T08:45:36;7.65;;;3.60;;
7545;SDS011;3814;51.454;12.616;2023-01-01T08:48:02;7.15;;;3.20;;
7545;SDS011;3814;51.454;12.616;2023-01-01T08:50:27;9.57;;;3.78;;
7545;SDS011;3814;51.454;12.616;2023-01-01T08:52:53;12.02;;;4.03;;
7545;SDS011;3814;51.454;12.616;2023-01-01T08:55:18;7.70;;;3.88;;
7545;SDS011;3814;51.454;12.616;2023-01-01T08:57:43;8.68;;;3.58;;
7545;SDS011;3814;51.454;12.616;2023-01-01T09:00:09;8.02;;;3.50;;
7545;SDS011;3814;51.454;12.616;2023-01-01T09:28:50;8.10;;;3.63;;
7545;SDS011;3814;51.454;12.616;2023-01-01T09:31:17;12.30;;;4.13;;
7545;SDS011;3814;51.454;12.616;2023-01-01T09:33:55;8.93;;;4.00;;
7545;SDS011;3814;51.454;12.616;2023-01-01T09:45:19;8.98;;;3.80;;
7545;SDS011;3814;51.454;12.616;2023-01-01T09:50:41;10.43;;;3.70;;
7545;SDS011;3814;51.454;12.616;2023-01-01T10:14:35;7.65;;;3.83;;
7545;SDS011;3814;51.454;12.616;2023-01-01T10:17:07;8.65;;;3.80;;
7545;SDS011;3814;51.454;12.616;2023-01-01T10:19:37;8.73;;;4.03;;
7545;SDS011;3814;51.454;12.616;2023-01-01T10:22:06;9.85;;;3.60;;
7545;SDS011;3814;51.454;12.616;2023-01-01T10:27:22;8.70;;;4.03;;
7545;SDS011;3814;51.454;12.616;2023-01-01T10:29:52;7.70;;;3.60;;
7545;SDS011;3814;51.454;12.616;2023-01-01T10:32:26;8.98;;;4.07;;
7545;SDS011;3814;51.454;12.616;2023-01-01T10:34:57;8.90;;;3.55;;
7545;SDS011;3814;51.454;12.616;2023-01-01T10:37:23;9.00;;;3.90;;
7545;SDS011;3814;51.454;12.616;2023-01-01T10:39:51;7.75;;;4.03;;
7545;SDS011;3814;51.454;12.616;2023-01-01T10:42:17;8.77;;;3.63;;
7545;SDS011;3814;51.454;12.616;2023-01-01T10:44:42;9.77;;;4.20;;
7545;SDS011;3814;51.454;12.616;2023-01-01T10:49:56;7.53;;;3.63;;
7545;SDS011;3814;51.454;12.616;2023-01-01T10:52:24;10.07;;;3.45;;
7545;SDS011;3814;51.454;12.616;2023-01-01T10:54:55;9.60;;;3.67;;
7545;SDS011;3814;51.454;12.616;2023-01-01T11:00:15;10.63;;;3.53;;
7545;SDS011;3814;51.454;12.616;2023-01-01T11:02:44;9.15;;;3.83;;
7545;SDS011;3814;51.454;12.616;2023-01-01T11:05:14;8.18;;;3.92;;
7545;SDS011;3814;51.454;12.616;2023-01-01T11:07:41;11.52;;;3.55;;
7545;SDS011;3814;51.454;12.616;2023-01-01T11:10:15;6.45;;;3.42;;
7545;SDS011;3814;51.454;12.616;2023-01-01T11:12:44;7.88;;;3.60;;
7545;SDS011;3814;51.454;12.616;2023-01-01T11:15:19;7.55;;;3.13;;
7545;SDS011;3814;51.454;12.616;2023-01-01T11:17:49;10.55;;;3.63;;
7545;SDS011;3814;51.454;12.616;2023-01-01T11:20:16;8.07;;;3.83;;
7545;SDS011;3814;51.454;12.616;2023-01-01T11:22:43;9.90;;;3.72;;
7545;SDS011;3814;51.454;12.616;2023-01-01T11:25:22;10.73;;;3.60;;
7545;SDS011;3814;51.454;12.616;2023-01-01T11:27:50;6.85;;;3.33;;
7545;SDS011;3814;51.454;12.616;2023-01-01T11:30:20;11.50;;;3.47;;
7545;SDS011;3814;51.454;12.616;2023-01-01T11:32:45;10.85;;;3.70;;
7545;SDS011;3814;51.454;12.616;2023-01-01T11:35:16;8.63;;;3.35;;
7545;SDS011;3814;51.454;12.616;2023-01-01T11:37:44;9.45;;;3.20;;
7545;SDS011;3814;51.454;12.616;2023-01-01T11:40:15;7.38;;;3.38;;
7545;SDS011;3814;51.454;12.616;2023-01-01T11:42:47;9.65;;;3.17;;
7545;SDS011;3814;51.454;12.616;2023-01-01T11:45:18;7.22;;;3.10;;
7545;SDS011;3814;51.454;12.616;2023-01-01T11:47:49;7.65;;;3.08;;
7545;SDS011;3814;51.454;12.616;2023-01-01T11:50:28;8.35;;;3.40;;
7545;SDS011;3814;51.454;12.616;2023-01-01T11:52:58;9.65;;;3.40;;
7545;SDS011;3814;51.454;12.616;2023-01-01T11:55:43;7.88;;;3.30;;
7545;SDS011;3814;51.454;12.616;2023-01-01T12:01:35;10.27;;;3.17;;
7545;SDS011;3814;51.454;12.616;2023-01-01T12:04:09;11.95;;;3.45;;
7545;SDS011;3814;51.454;12.616;2023-01-01T12:06:40;9.63;;;3.30;;
7545;SDS011;3814;51.454;12.616;2023-01-01T12:09:32;7.75;;;2.97;;
7545;SDS011;3814;51.454;12.616;2023-01-01T12:12:07;7.30;;;2.75;;
7545;SDS011;3814;51.454;12.616;2023-01-01T12:17:16;7.00;;;3.05;;
7545;SDS011;3814;51.454;12.616;2023-01-01T12:22:46;5.55;;;2.55;;
7545;SDS011;3814;51.454;12.616;2023-01-01T12:25:13;6.50;;;2.80;;
7545;SDS011;3814;51.454;12.616;2023-01-01T12:30:23;8.25;;;3.20;;
7545;SDS011;3814;51.454;12.616;2023-01-01T12:32:58;9.45;;;3.28;;
7545;SDS011;3814;51.454;12.616;2023-01-01T12:41:12;7.35;;;2.88;;
7545;SDS011;3814;51.454;12.616;2023-01-01T12:49:12;10.18;;;3.35;;
7545;SDS011;3814;51.454;12.616;2023-01-01T12:52:06;10.52;;;2.70;;
7545;SDS011;3814;51.454;12.616;2023-01-01T12:57:31;8.55;;;3.13;;
7545;SDS011;3814;51.454;12.616;2023-01-01T12:59:58;6.80;;;3.00;;
7545;SDS011;3814;51.454;12.616;2023-01-01T13:02:27;8.82;;;2.90;;
7545;SDS011;3814;51.454;12.616;2023-01-01T13:04:56;6.70;;;3.63;;
7545;SDS011;3814;51.454;12.616;2023-01-01T13:07:27;7.15;;;2.70;;
7545;SDS011;3814;51.454;12.616;2023-01-01T13:09:55;6.35;;;2.80;;
7545;SDS011;3814;51.454;12.616;2023-01-01T13:12:22;10.68;;;3.20;;
7545;SDS011;3814;51.454;12.616;2023-01-01T13:14:51;10.40;;;3.03;;
7545;SDS011;3814;51.454;12.616;2023-01-01T13:17:20;7.35;;;2.88;;
7545;SDS011;3814;51.454;12.616;2023-01-01T13:20:14;7.75;;;2.65;;
7545;SDS011;3814;51.454;12.616;2023-01-01T13:22:46;7.65;;;2.75;;
7545;SDS011;3814;51.454;12.616;2023-01-01T13:35:36;5.32;;;2.50;;
7545;SDS011;3814;51.454;12.616;2023-01-01T13:38:01;8.38;;;2.63;;
7545;SDS011;3814;51.454;12.616;2023-01-01T13:40:48;7.97;;;2.60;;
7545;SDS011;3814;51.454;12.616;2023-01-01T13:43:16;6.00;;;2.50;;
7545;SDS011;3814;51.454;12.616;2023-01-01T13:45:44;6.63;;;2.60;;
7545;SDS011;3814;51.454;12.616;2023-01-01T13:56:59;7.38;;;3.15;;
7545;SDS011;3814;51.454;12.616;2023-01-01T13:59:32;9.57;;;2.88;;
7545;SDS011;3814;51.454;12.616;2023-01-01T14:05:23;9.40;;;3.70;;
7545;SDS011;3814;51.454;12.616;2023-01-01T14:07:57;9.85;;;3.92;;
7545;SDS011;3814;51.454;12.616;2023-01-01T14:10:24;8.35;;;3.28;;
7545;SDS011;3814;51.454;12.616;2023-01-01T14:12:52;8.75;;;2.65;;
7545;SDS011;3814;51.454;12.616;2023-01-01T14:17:53;10.43;;;5.15;;
7545;SDS011;3814;51.454;12.616;2023-01-01T14:20:21;10.48;;;4.10;;
7545;SDS011;3814;51.454;12.616;2023-01-01T14:22:49;8.55;;;3.05;;
7545;SDS011;3814;51.454;12.616;2023-01-01T14:25:15;7.38;;;2.60;;
7545;SDS011;3814;51.454;12.616;2023-01-01T14:28:00;7.70;;;2.58;;
7545;SDS011;3814;51.454;12.616;2023-01-01T14:30:26;5.43;;;2.40;;
7545;SDS011;3814;51.454;12.616;2023-01-01T14:32:57;7.65;;;2.40;;
7545;SDS011;3814;51.454;12.616;2023-01-01T14:35:25;9.73;;;3.22;;
7545;SDS011;3814;51.454;12.616;2023-01-01T14:37:50;6.90;;;2.88;;
7545;SDS011;3814;51.454;12.616;2023-01-01T14:43:03;11.35;;;4.03;;
7545;SDS011;3814;51.454;12.616;2023-01-01T15:47:38;6.78;;;2.80;;
7545;SDS011;3814;51.454;12.616;2023-01-01T15:50:38;8.57;;;2.55;;
7545;SDS011;3814;51.454;12.616;2023-01-01T15:52:58;6.07;;;2.60;;
7545;SDS011;3814;51.454;12.616;2023-01-01T15:55:27;7.63;;;2.92;;
7545;SDS011;3814;51.454;12.616;2023-01-01T15:57:57;7.38;;;2.58;;
7545;SDS011;3814;51.454;12.616;2023-01-01T16:00:27;9.38;;;2.83;;
7545;SDS011;3814;51.454;12.616;2023-01-01T16:02:59;8.27;;;2.90;;
7545;SDS011;3814;51.454;12.616;2023-01-01T16:05:45;10.00;;;2.70;;
7545;SDS011;3814;51.454;12.616;2023-01-01T16:08:11;11.15;;;3.40;;
7545;SDS011;3814;51.454;12.616;2023-01-01T16:10:37;6.40;;;2.25;;
7545;SDS011;3814;51.454;12.616;2023-01-01T16:13:03;6.60;;;2.72;;
7545;SDS011;3814;51.454;12.616;2023-01-01T16:15:28;8.43;;;2.67;;
7545;SDS011;3814;51.454;12.616;2023-01-01T16:17:54;9.57;;;2.67;;
7545;SDS011;3814;51.454;12.616;2023-01-01T16:20:20;11.15;;;2.72;;
7545;SDS011;3814;51.454;12.616;2023-01-01T16:22:49;6.53;;;2.50;;
7545;SDS011;3814;51.454;12.616;2023-01-01T16:25:15;9.85;;;2.60;;
7545;SDS011;3814;51.454;12.616;2023-01-01T16:27:42;11.57;;;2.83;;
7545;SDS011;3814;51.454;12.616;2023-01-01T16:30:08;6.13;;;2.58;;
7545;SDS011;3814;51.454;12.616;2023-01-01T16:32:34;8.68;;;2.72;;
7545;SDS011;3814;51.454;12.616;2023-01-01T16:35:00;10.30;;;2.80;;
7545;SDS011;3814;51.454;12.616;2023-01-01T16:37:26;10.48;;;2.63;;
7545;SDS011;3814;51.454;12.616;2023-01-01T16:39:51;7.68;;;2.60;;
7545;SDS011;3814;51.454;12.616;2023-01-01T16:42:17;7.35;;;2.40;;
7545;SDS011;3814;51.454;12.616;2023-01-01T16:44:42;5.38;;;2.17;;
7545;SDS011;3814;51.454;12.616;2023-01-01T16:47:08;15.07;;;3.05;;
7545;SDS011;3814;51.454;12.616;2023-01-01T16:49:34;7.70;;;2.33;;
7545;SDS011;3814;51.454;12.616;2023-01-01T16:51:59;7.97;;;2.65;;
7545;SDS011;3814;51.454;12.616;2023-01-01T16:54:25;9.57;;;2.85;;
7545;SDS011;3814;51.454;12.616;2023-01-01T16:56:50;7.35;;;2.88;;
7545;SDS011;3814;51.454;12.616;2023-01-01T16:59:16;9.57;;;2.60;;
7545;SDS011;3814;51.454;12.616;2023-01-01T17:01:41;8.02;;;2.80;;
7545;SDS011;3814;51.454;12.616;2023-01-01T17:04:07;9.65;;;2.90;;
7545;SDS011;3814;51.454;12.616;2023-01-01T17:06:32;8.77;;;2.67;;
7545;SDS011;3814;51.454;12.616;2023-01-01T17:08:58;10.77;;;2.60;;
7545;SDS011;3814;51.454;12.616;2023-01-01T17:11:24;10.35;;;2.70;;
7545;SDS011;3814;51.454;12.616;2023-01-01T17:13:50;10.23;;;2.70;;
7545;SDS011;3814;51.454;12.616;2023-01-01T17:16:16;7.72;;;2.78;;
7545;SDS011;3814;51.454;12.616;2023-01-01T17:18:41;7.03;;;2.50;;
7545;SDS011;3814;51.454;12.616;2023-01-01T17:21:07;9.15;;;2.70;;
7545;SDS011;3814;51.454;12.616;2023-01-01T17:23:35;11.02;;;2.83;;
7545;SDS011;3814;51.454;12.616;2023-01-01T17:26:06;7.80;;;2.47;;
7545;SDS011;3814;51.454;12.616;2023-01-01T17:28:39;9.60;;;2.58;;
7545;SDS011;3814;51.454;12.616;2023-01-01T17:31:05;7.72;;;2.72;;
7545;SDS011;3814;51.454;12.616;2023-01-01T17:33:33;10.57;;;2.83;;
7545;SDS011;3814;51.454;12.616;2023-01-01T17:35:58;8.93;;;2.53;;
7545;SDS011;3814;51.454;12.616;2023-01-01T17:38:24;8.65;;;2.40;;
7545;SDS011;3814;51.454;12.616;2023-01-01T17:40:49;8.43;;;2.53;;
7545;SDS011;3814;51.454;12.616;2023-01-01T17:43:15;7.35;;;2.50;;
7545;SDS011;3814;51.454;12.616;2023-01-01T17:45:40;8.00;;;2.63;;
7545;SDS011;3814;51.454;12.616;2023-01-01T17:48:06;9.10;;;2.42;;
7545;SDS011;3814;51.454;12.616;2023-01-01T17:50:31;6.18;;;2.78;;
7545;SDS011;3814;51.454;12.616;2023-01-01T17:52:56;8.73;;;2.72;;
7545;SDS011;3814;51.454;12.616;2023-01-01T17:55:22;7.38;;;2.78;;
7545;SDS011;3814;51.454;12.616;2023-01-01T17:57:47;6.63;;;2.45;;
7545;SDS011;3814;51.454;12.616;2023-01-01T18:00:12;12.43;;;3.33;;
7545;SDS011;3814;51.454;12.616;2023-01-01T18:02:38;11.50;;;3.15;;
7545;SDS011;3814;51.454;12.616;2023-01-01T18:05:04;8.70;;;3.60;;
7545;SDS011;3814;51.454;12.616;2023-01-01T18:07:29;8.35;;;3.30;;
7545;SDS011;3814;51.454;12.616;2023-01-01T18:09:55;10.07;;;3.10;;
7545;SDS011;3814;51.454;12.616;2023-01-01T18:12:20;9.15;;;3.20;;
7545;SDS011;3814;51.454;12.616;2023-01-01T18:14:45;21.98;;;3.80;;
7545;SDS011;3814;51.454;12.616;2023-01-01T18:17:11;8.10;;;3.17;;
7545;SDS011;3814;51.454;12.616;2023-01-01T18:19:36;8.10;;;2.70;;
7545;SDS011;3814;51.454;12.616;2023-01-01T18:22:03;10.30;;;2.50;;
7545;SDS011;3814;51.454;12.616;2023-01-01T18:24:30;9.35;;;2.75;;
7545;SDS011;3814;51.454;12.616;2023-01-01T18:26:55;11.02;;;2.75;;
7545;SDS011;3814;51.454;12.616;2023-01-01T18:29:21;10.63;;;2.95;;
7545;SDS011;3814;51.454;12.616;2023-01-01T18:31:46;6.60;;;2.60;;
7545;SDS011;3814;51.454;12.616;2023-01-01T18:34:12;11.40;;;2.90;;
7545;SDS011;3814;51.454;12.616;2023-01-01T18:36:37;6.25;;;2.65;;
7545;SDS011;3814;51.454;12.616;2023-01-01T18:39:13;8.63;;;2.83;;